createdAt,value
2023-02-13T00:07:24.217Z,114.80
2023-02-13T00:17:48.491Z,111.80
2023-02-13T00:28:13.295Z,133.30
2023-02-13T00:38:39.443Z,100.10
2023-02-13T00:49:03.776Z,107.80
2023-02-13T00:59:28.584Z,92.90
2023-02-13T01:09:53.423Z,99.60
2023-02-13T01:20:18.696Z,92.40
2023-02-13T01:30:42.957Z,96.30
2023-02-13T01:41:08.599Z,86.40
2023-02-13T01:51:36.433Z,77.40
2023-02-13T02:02:02.782Z,80.30
2023-02-13T02:12:36.547Z,78.40
2023-02-13T02:23:24.930Z,87.70
2023-02-13T02:33:59.860Z,72.90
2023-02-13T02:44:34.646Z,66.50
2023-02-13T02:55:08.426Z,69.50
2023-02-13T03:06:06.090Z,66.50
2023-02-13T03:16:49.313Z,63.60
2023-02-13T03:27:44.047Z,60.70
2023-02-13T03:38:15.415Z,59.00
2023-02-13T03:49:01.066Z,63.50
2023-02-13T03:59:31.301Z,63.90
2023-02-13T04:09:58.245Z,54.90
2023-02-13T04:20:26.473Z,58.20
2023-02-13T04:30:51.319Z,62.60
2023-02-13T04:41:16.184Z,61.40
2023-02-13T04:51:41.024Z,76.80
2023-02-13T05:02:05.981Z,61.50
2023-02-13T05:12:30.791Z,51.90
2023-02-13T05:23:14.119Z,52.80
2023-02-13T05:33:39.217Z,52.00
2023-02-13T05:44:04.413Z,51.50
2023-02-13T05:54:29.277Z,49.00
2023-02-13T06:04:54.120Z,46.50
2023-02-13T06:15:19.315Z,47.00
2023-02-13T06:25:44.336Z,51.30
2023-02-13T06:36:09.505Z,46.20
2023-02-13T06:46:34.438Z,46.70
2023-02-13T06:56:59.514Z,42.60
2023-02-13T07:07:24.736Z,51.20
2023-02-13T07:17:54.986Z,43.60
2023-02-13T07:28:19.298Z,37.70
2023-02-13T07:38:44.112Z,46.00
2023-02-13T07:49:09.035Z,37.00
2023-02-13T07:59:34.089Z,39.50
2023-02-13T08:10:17.253Z,41.40
2023-02-13T08:20:41.527Z,40.60
2023-02-13T08:31:11.949Z,42.70
2023-02-13T08:41:36.403Z,34.10
2023-02-13T08:52:01.947Z,37.30
2023-02-13T09:02:26.260Z,31.90
2023-02-13T09:12:53.882Z,27.70
2023-02-13T09:23:18.758Z,29.60
2023-02-13T09:33:44.166Z,26.80
2023-02-13T09:44:33.174Z,24.70
2023-02-13T09:54:58.299Z,26.20
2023-02-13T10:05:42.252Z,24.40
2023-02-13T10:16:12.431Z,26.00
2023-02-13T10:26:44.953Z,19.00
2023-02-13T10:37:15.679Z,19.50
2023-02-13T10:47:59.536Z,21.30
2023-02-13T10:58:31.927Z,24.80
2023-02-13T11:08:56.207Z,22.40
2023-02-13T11:19:29.519Z,19.60
2023-02-13T11:29:56.836Z,13.60
2023-02-13T11:40:31.765Z,11.30
2023-02-13T11:50:56.806Z,14.90
2023-02-13T12:01:28.690Z,22.50
2023-02-13T12:11:55.195Z,15.80
2023-02-13T12:22:29.775Z,13.00
2023-02-13T12:33:08.501Z,19.30
2023-02-13T12:44:07.846Z,19.20
2023-02-13T12:54:44.435Z,18.40
2023-02-13T13:05:19.495Z,19.50
2023-02-13T13:15:52.333Z,18.30
2023-02-13T13:26:25.839Z,21.00
2023-02-13T13:36:56.554Z,17.80
2023-02-13T13:47:32.318Z,24.90
2023-02-13T13:58:00.717Z,23.50
2023-02-13T14:19:27.044Z,23.90
2023-02-13T14:29:51.972Z,24.30
2023-02-13T14:40:53.823Z,18.00
2023-02-13T14:51:28.196Z,18.40
2023-02-13T15:01:58.948Z,9.90
2023-02-13T15:12:29.564Z,8.20
2023-02-13T15:22:54.610Z,10.60
2023-02-13T15:33:21.304Z,8.30
2023-02-13T15:43:48.327Z,9.00
2023-02-13T15:54:26.244Z,9.40
2023-02-13T16:04:53.171Z,11.60
2023-02-13T16:15:21.071Z,12.70
2023-02-13T16:25:48.375Z,15.60
2023-02-13T16:36:27.973Z,15.90
2023-02-13T16:46:55.564Z,12.00
2023-02-13T16:57:23.753Z,14.10
2023-02-13T17:07:50.481Z,16.10
2023-02-13T17:18:14.852Z,17.10
2023-02-13T17:28:39.437Z,23.10
2023-02-13T17:39:03.737Z,25.60
2023-02-13T17:49:28.568Z,26.80
2023-02-13T17:59:53.461Z,21.60
2023-02-13T18:10:20.479Z,25.60
2023-02-13T18:20:45.393Z,20.30
2023-02-13T18:31:11.079Z,18.70
2023-02-13T18:41:44.815Z,26.10
2023-02-13T18:52:09.265Z,29.90
2023-02-13T19:02:34.217Z,26.30
2023-02-13T19:12:59.155Z,24.00
2023-02-13T19:23:24.016Z,27.30
2023-02-13T19:33:50.312Z,27.00
2023-02-13T19:44:15.435Z,24.20
2023-02-13T19:54:40.268Z,28.40
2023-02-13T20:05:07.910Z,49.60
2023-02-13T20:15:32.528Z,38.90
2023-02-13T20:26:02.147Z,40.60
2023-02-13T20:36:28.285Z,33.60
2023-02-13T20:46:52.427Z,50.00
2023-02-13T20:57:17.242Z,38.40
2023-02-13T21:07:42.044Z,67.90
2023-02-13T21:18:06.391Z,56.20
2023-02-13T21:28:32.255Z,50.30
2023-02-13T21:38:57.928Z,56.10
2023-02-13T21:49:24.586Z,53.00
2023-02-13T21:59:49.482Z,48.00
2023-02-13T22:10:13.834Z,41.60
2023-02-13T22:20:39.389Z,44.60
2023-02-13T22:31:10.047Z,51.70
2023-02-13T22:41:34.294Z,49.50
2023-02-13T22:51:58.528Z,48.60
2023-02-13T23:02:22.742Z,51.10
2023-02-13T23:12:49.299Z,50.90
2023-02-13T23:23:13.496Z,49.80
2023-02-13T23:33:37.810Z,36.10
2023-02-13T23:44:02.146Z,39.00
2023-02-13T23:54:27.189Z,39.30
